createdAt,value
2018-01-07T00:01:01.236Z,0
2018-01-07T00:02:11.401Z,0
2018-01-07T00:03:21.409Z,0
2018-01-07T00:04:31.587Z,0
2018-01-07T00:05:41.755Z,0
2018-01-07T00:06:52.053Z,0
2018-01-07T00:08:02.222Z,0
2018-01-07T00:09:12.377Z,0
2018-01-07T00:10:22.644Z,0
2018-01-07T00:11:32.830Z,0
2018-01-07T00:12:42.958Z,0
2018-01-07T00:13:53.201Z,0
2018-01-07T00:15:03.356Z,0
2018-01-07T00:16:13.538Z,0
2018-01-07T00:17:23.708Z,0
2018-01-07T00:18:33.876Z,0
2018-01-07T00:19:44.040Z,0
2018-01-07T00:20:53.987Z,0
2018-01-07T00:22:04.342Z,0
2018-01-07T00:23:14.514Z,0
2018-01-07T00:24:24.747Z,0
2018-01-07T00:25:34.922Z,0
2018-01-07T00:26:44.828Z,0
2018-01-07T00:27:54.999Z,0
2018-01-07T00:29:05.203Z,0
2018-01-07T00:30:15.335Z,0
2018-01-07T00:31:25.525Z,0
2018-01-07T00:32:35.466Z,0
2018-01-07T00:33:45.676Z,0
2018-01-07T00:34:55.947Z,0
2018-01-07T00:36:06.103Z,0
2018-01-07T00:37:16.262Z,0
2018-01-07T00:38:26.527Z,0
2018-01-07T00:39:36.678Z,0
2018-01-07T00:40:46.883Z,0
2018-01-07T00:41:57.090Z,0
2018-01-07T00:43:07.247Z,0
2018-01-07T00:44:17.664Z,0
2018-01-07T00:45:27.894Z,0
2018-01-07T00:46:38.070Z,0
2018-01-07T00:47:48.305Z,0
2018-01-07T00:48:58.474Z,0
2018-01-07T00:50:08.631Z,0
2018-01-07T00:51:18.488Z,0
2018-01-07T00:52:28.679Z,0
2018-01-07T00:53:38.807Z,0
2018-01-07T00:54:49.016Z,0
2018-01-07T00:55:58.941Z,0
2018-01-07T00:57:09.096Z,0
2018-01-07T00:58:18.986Z,0
2018-01-07T00:59:29.142Z,0
2018-01-07T01:00:39.387Z,0
2018-01-07T01:01:49.572Z,0
2018-01-07T01:02:59.716Z,0
2018-01-07T01:04:09.846Z,0
2018-01-07T01:05:20.000Z,0
2018-01-07T01:06:30.151Z,0
2018-01-07T01:07:40.278Z,0
2018-01-07T01:08:50.433Z,0
2018-01-07T01:10:00.586Z,0
2018-01-07T01:11:10.766Z,0
2018-01-07T01:12:21.534Z,0
2018-01-07T01:13:31.656Z,0
2018-01-07T01:14:41.839Z,0
2018-01-07T01:15:51.965Z,0
2018-01-07T01:17:02.074Z,0
2018-01-07T01:18:12.189Z,0
2018-01-07T01:19:22.341Z,0
2018-01-07T01:20:32.524Z,0
2018-01-07T01:21:42.681Z,0
2018-01-07T01:22:52.877Z,0
2018-01-07T01:24:03.032Z,0
2018-01-07T01:25:13.161Z,0
2018-01-07T01:26:23.275Z,0
2018-01-07T01:27:33.404Z,0
2018-01-07T01:28:44.650Z,0
2018-01-07T01:29:54.812Z,0
2018-01-07T01:31:05.003Z,0
2018-01-07T01:32:15.180Z,0
2018-01-07T01:33:25.076Z,0
2018-01-07T01:34:35.005Z,0
2018-01-07T01:35:45.227Z,0
2018-01-07T01:36:55.122Z,0
2018-01-07T01:38:05.459Z,0
2018-01-07T01:39:15.664Z,0
2018-01-07T01:40:25.546Z,0
2018-01-07T01:41:35.677Z,0
2018-01-07T01:42:45.817Z,0
2018-01-07T01:43:56.037Z,0
2018-01-07T01:45:06.237Z,0
2018-01-07T01:46:16.406Z,0
2018-01-07T01:47:26.310Z,0
2018-01-07T01:48:36.476Z,0
2018-01-07T01:49:46.622Z,0
2018-01-07T01:50:56.842Z,0
2018-01-07T01:52:06.958Z,0
2018-01-07T01:53:17.106Z,0
2018-01-07T01:54:27.324Z,0
2018-01-07T01:55:37.574Z,0
2018-01-07T01:56:47.524Z,0
2018-01-07T01:57:57.685Z,0
2018-01-07T01:59:07.851Z,0
2018-01-07T02:00:18.170Z,0
2018-01-07T02:01:28.297Z,0
2018-01-07T02:02:38.621Z,0
2018-01-07T02:03:48.797Z,0
2018-01-07T02:04:58.970Z,0
2018-01-07T02:06:09.116Z,0
2018-01-07T02:07:19.282Z,0
2018-01-07T02:08:29.214Z,0
2018-01-07T02:09:39.380Z,0
2018-01-07T02:10:49.554Z,0
2018-01-07T02:11:59.699Z,0
2018-01-07T02:13:09.888Z,0
2018-01-07T02:14:20.039Z,0
2018-01-07T02:15:30.192Z,0
2018-01-07T02:16:40.333Z,0
2018-01-07T02:17:50.479Z,0
2018-01-07T02:19:00.693Z,0
2018-01-07T02:20:10.574Z,0
2018-01-07T02:21:20.695Z,0
2018-01-07T02:22:30.865Z,0
2018-01-07T02:23:41.057Z,0
2018-01-07T02:24:50.993Z,0
2018-01-07T02:26:00.871Z,0
2018-01-07T02:27:11.042Z,0
2018-01-07T02:28:21.189Z,0
2018-01-07T02:29:31.315Z,0
2018-01-07T02:30:41.469Z,0
2018-01-07T02:31:51.573Z,0
2018-01-07T02:33:01.738Z,0
2018-01-07T02:34:11.955Z,0
2018-01-07T02:35:22.144Z,0
2018-01-07T02:36:32.273Z,0
2018-01-07T02:37:42.411Z,0
2018-01-07T02:38:52.566Z,0
2018-01-07T02:40:02.782Z,0
2018-01-07T02:41:13.033Z,0
2018-01-07T02:42:23.165Z,0
2018-01-07T02:43:33.051Z,0
2018-01-07T02:44:43.162Z,0
2018-01-07T02:45:53.296Z,0
2018-01-07T02:47:03.580Z,0
2018-01-07T02:48:13.710Z,0
2018-01-07T02:49:23.890Z,0
2018-01-07T02:50:34.046Z,0
2018-01-07T02:51:44.192Z,0
2018-01-07T02:52:54.363Z,0
2018-01-07T02:54:04.497Z,0
2018-01-07T02:55:14.641Z,0
2018-01-07T02:56:24.781Z,0
2018-01-07T02:57:35.005Z,0
2018-01-07T02:58:45.212Z,0
2018-01-07T02:59:55.343Z,0
2018-01-07T03:01:05.421Z,0
2018-01-07T03:02:15.573Z,0
2018-01-07T03:03:25.755Z,0
2018-01-07T03:04:35.901Z,0
2018-01-07T03:05:46.000Z,0
2018-01-07T03:06:56.107Z,0
2018-01-07T03:08:06.308Z,0
2018-01-07T03:09:16.455Z,0
2018-01-07T03:10:26.319Z,0
2018-01-07T03:11:36.439Z,0
2018-01-07T03:12:46.600Z,0
2018-01-07T03:13:56.820Z,0
2018-01-07T03:15:06.955Z,0
2018-01-07T03:16:16.704Z,0
2018-01-07T03:17:26.848Z,0
2018-01-07T03:18:36.996Z,0
2018-01-07T03:19:47.306Z,0
2018-01-07T03:20:57.465Z,0
2018-01-07T03:22:07.630Z,0
2018-01-07T03:23:17.752Z,0
2018-01-07T03:24:27.886Z,0
2018-01-07T03:25:38.005Z,0
2018-01-07T03:26:48.120Z,0
2018-01-07T03:27:58.269Z,0
2018-01-07T03:29:08.384Z,0
2018-01-07T03:30:18.525Z,0
2018-01-07T03:31:28.654Z,0
2018-01-07T03:32:38.911Z,0
2018-01-07T03:33:49.071Z,0
2018-01-07T03:34:59.200Z,0
2018-01-07T03:36:09.423Z,0
2018-01-07T03:37:19.563Z,0
2018-01-07T03:38:29.907Z,0
2018-01-07T03:39:40.122Z,0
2018-01-07T03:40:50.322Z,0
2018-01-07T03:42:00.208Z,0
2018-01-07T03:43:10.221Z,0
2018-01-07T03:44:21.318Z,0
2018-01-07T03:45:31.526Z,0
2018-01-07T03:46:41.719Z,0
2018-01-07T03:47:51.877Z,0
2018-01-07T03:49:01.999Z,0
2018-01-07T03:50:12.109Z,0
2018-01-07T03:51:22.428Z,0
2018-01-07T03:52:32.568Z,0
2018-01-07T03:53:42.732Z,0
2018-01-07T03:54:52.932Z,0
2018-01-07T03:56:02.937Z,0
2018-01-07T03:57:12.807Z,0
2018-01-07T03:58:22.942Z,0
2018-01-07T03:59:33.062Z,0
2018-01-07T04:00:43.174Z,0
2018-01-07T04:01:53.297Z,0
2018-01-07T04:03:03.127Z,0
2018-01-07T04:04:13.301Z,0
2018-01-07T04:05:23.455Z,0
2018-01-07T04:06:34.553Z,0
2018-01-07T04:07:44.662Z,0
2018-01-07T04:08:54.785Z,0
2018-01-07T04:10:04.989Z,0
2018-01-07T04:11:15.112Z,0
2018-01-07T04:12:25.374Z,0
2018-01-07T04:13:35.570Z,0
2018-01-07T04:14:45.773Z,0
2018-01-07T04:15:55.993Z,0
2018-01-07T04:17:06.203Z,0
2018-01-07T04:18:16.514Z,0
2018-01-07T04:19:26.657Z,0
2018-01-07T04:20:37.818Z,0
2018-01-07T04:21:47.672Z,0
2018-01-07T04:22:57.428Z,0
2018-01-07T04:24:07.291Z,0
2018-01-07T04:25:17.410Z,0
2018-01-07T04:26:27.546Z,0
2018-01-07T04:27:37.670Z,0
2018-01-07T04:28:47.879Z,0
2018-01-07T04:29:58.110Z,0
2018-01-07T04:31:08.272Z,0
2018-01-07T04:32:18.415Z,0
2018-01-07T04:33:28.524Z,0
2018-01-07T04:34:38.668Z,0
2018-01-07T04:35:48.914Z,0
2018-01-07T04:36:58.774Z,0
2018-01-07T04:38:08.889Z,0
2018-01-07T04:39:18.753Z,0
2018-01-07T04:40:28.892Z,0
2018-01-07T04:41:38.829Z,0
2018-01-07T04:42:49.155Z,0
2018-01-07T04:43:59.290Z,0
2018-01-07T04:45:09.481Z,0
2018-01-07T04:46:19.832Z,0
2018-01-07T04:47:30.040Z,0
2018-01-07T04:48:40.304Z,0
2018-01-07T04:49:50.597Z,0
2018-01-07T04:51:00.715Z,0
2018-01-07T04:52:10.876Z,0
2018-01-07T04:53:21.024Z,0
2018-01-07T04:54:31.398Z,0
2018-01-07T04:55:41.585Z,0
2018-01-07T04:56:51.380Z,0
2018-01-07T04:58:01.578Z,0
2018-01-07T04:59:11.690Z,0
2018-01-07T05:00:21.833Z,0
2018-01-07T05:01:31.977Z,0
2018-01-07T05:02:42.087Z,0
2018-01-07T05:03:52.198Z,0
2018-01-07T05:05:02.437Z,0
2018-01-07T05:06:12.695Z,0
2018-01-07T05:07:22.585Z,0
2018-01-07T05:08:32.766Z,0
2018-01-07T05:09:42.969Z,0
2018-01-07T05:10:53.088Z,0
2018-01-07T05:12:03.357Z,0
2018-01-07T05:13:13.459Z,0
2018-01-07T05:14:23.653Z,0
2018-01-07T05:15:33.778Z,0
2018-01-07T05:16:43.805Z,0
2018-01-07T05:17:53.930Z,0
2018-01-07T05:19:04.059Z,0
2018-01-07T05:20:14.337Z,0
2018-01-07T05:21:24.610Z,0
2018-01-07T05:22:34.803Z,0
2018-01-07T05:23:45.057Z,0
2018-01-07T05:24:55.190Z,0
2018-01-07T05:26:05.371Z,0
2018-01-07T05:27:15.498Z,0
2018-01-07T05:28:25.602Z,0
2018-01-07T05:29:35.737Z,0
2018-01-07T05:30:45.625Z,0
2018-01-07T05:31:55.409Z,0
2018-01-07T05:33:05.529Z,0
2018-01-07T05:34:15.634Z,0
2018-01-07T05:35:25.748Z,0
2018-01-07T05:36:35.526Z,0
2018-01-07T05:37:45.383Z,0
2018-01-07T05:38:55.499Z,0
2018-01-07T05:40:05.685Z,0
2018-01-07T05:41:15.848Z,0
2018-01-07T05:42:25.970Z,0
2018-01-07T05:43:36.134Z,0
2018-01-07T05:44:46.242Z,0
2018-01-07T05:45:56.356Z,0
2018-01-07T05:47:06.618Z,0
2018-01-07T05:48:16.748Z,0
2018-01-07T05:49:27.112Z,0
2018-01-07T05:50:37.288Z,0
2018-01-07T05:51:47.397Z,0
2018-01-07T05:52:57.621Z,0
2018-01-07T05:54:07.797Z,0
2018-01-07T05:55:17.951Z,0
2018-01-07T05:56:27.809Z,0
2018-01-07T05:57:37.973Z,0
2018-01-07T05:58:47.758Z,0
2018-01-07T05:59:57.974Z,0
2018-01-07T06:01:08.213Z,0
2018-01-07T06:02:18.346Z,0
2018-01-07T06:03:28.644Z,0
2018-01-07T06:04:38.915Z,0
2018-01-07T06:05:49.121Z,0
2018-01-07T06:06:59.254Z,0
2018-01-07T06:08:41.293Z,0
2018-01-07T06:09:51.468Z,0
2018-01-07T06:11:01.656Z,0
2018-01-07T06:12:11.665Z,0
2018-01-07T06:13:21.521Z,0
2018-01-07T06:14:31.859Z,0
2018-01-07T06:15:42.038Z,0
2018-01-07T06:16:52.292Z,0
2018-01-07T06:18:02.482Z,0
2018-01-07T06:19:12.773Z,0
2018-01-07T06:20:23.057Z,0
2018-01-07T06:21:33.290Z,0
2018-01-07T06:22:43.407Z,0
2018-01-07T06:23:53.597Z,0
2018-01-07T06:25:03.732Z,0
2018-01-07T06:26:14.002Z,0
2018-01-07T06:27:24.227Z,0
2018-01-07T06:28:34.370Z,0
2018-01-07T06:29:44.497Z,0
2018-01-07T06:30:54.629Z,0
2018-01-07T06:32:04.745Z,0
2018-01-07T06:33:14.906Z,0
2018-01-07T06:34:25.126Z,0
2018-01-07T06:35:35.319Z,0
2018-01-07T06:36:45.550Z,0
2018-01-07T06:37:55.759Z,0
2018-01-07T06:39:05.941Z,0
2018-01-07T06:40:16.200Z,0
2018-01-07T06:41:26.315Z,0
2018-01-07T06:42:36.443Z,0
2018-01-07T06:43:46.557Z,0
2018-01-07T06:44:56.737Z,0
2018-01-07T06:46:06.944Z,0
2018-01-07T06:47:17.201Z,0
2018-01-07T06:48:27.358Z,0
2018-01-07T06:49:37.261Z,0
2018-01-07T06:50:47.380Z,0
2018-01-07T06:51:57.671Z,0
2018-01-07T06:53:07.797Z,0
2018-01-07T06:54:17.978Z,0
2018-01-07T06:55:28.128Z,0
2018-01-07T06:56:38.241Z,0
2018-01-07T06:57:48.012Z,0
2018-01-07T06:58:58.191Z,0
2018-01-07T07:00:08.313Z,0
2018-01-07T07:01:18.429Z,0
2018-01-07T07:02:28.679Z,0
2018-01-07T07:03:38.810Z,0
2018-01-07T07:04:48.943Z,0
2018-01-07T07:05:59.136Z,0
2018-01-07T07:07:09.136Z,0
2018-01-07T07:08:19.292Z,0
2018-01-07T07:09:29.429Z,0
2018-01-07T07:10:39.701Z,0
2018-01-07T07:11:49.831Z,0
2018-01-07T07:12:59.999Z,0
2018-01-07T07:14:10.237Z,0
2018-01-07T07:15:20.392Z,0
2018-01-07T07:16:30.541Z,0
2018-01-07T07:17:40.669Z,0
2018-01-07T07:18:50.804Z,0
2018-01-07T07:20:00.921Z,0
2018-01-07T07:21:11.034Z,5
2018-01-07T07:22:21.159Z,5
2018-01-07T07:23:31.283Z,5
2018-01-07T07:24:41.444Z,5
2018-01-07T07:25:51.607Z,5
2018-01-07T07:27:01.541Z,5
2018-01-07T07:28:11.673Z,5
2018-01-07T07:29:21.823Z,5
2018-01-07T07:30:31.725Z,5
2018-01-07T07:31:41.874Z,5
2018-01-07T07:32:51.981Z,5
2018-01-07T07:34:02.150Z,10
2018-01-07T07:35:12.317Z,10
2018-01-07T07:36:22.559Z,10
2018-01-07T07:37:32.748Z,10
2018-01-07T07:38:42.996Z,10
2018-01-07T07:39:53.259Z,15
2018-01-07T07:41:03.393Z,15
2018-01-07T07:42:13.594Z,15
2018-01-07T07:43:23.758Z,15
2018-01-07T07:44:34.005Z,15
2018-01-07T07:45:44.259Z,15
2018-01-07T07:46:54.393Z,15
2018-01-07T07:48:04.502Z,15
2018-01-07T07:49:14.643Z,20
2018-01-07T07:50:24.772Z,20
2018-01-07T07:51:34.892Z,20
2018-01-07T07:52:46.078Z,20
2018-01-07T07:53:56.286Z,20
2018-01-07T07:55:06.220Z,20
2018-01-07T07:56:16.345Z,20
2018-01-07T07:57:26.465Z,25
2018-01-07T07:58:36.717Z,25
2018-01-07T07:59:46.569Z,25
2018-01-07T08:00:56.790Z,30
2018-01-07T08:02:06.946Z,30
2018-01-07T08:03:17.097Z,30
2018-01-07T08:04:27.496Z,30
2018-01-07T08:05:37.646Z,35
2018-01-07T08:06:47.422Z,35
2018-01-07T08:07:57.647Z,35
2018-01-07T08:09:07.772Z,40
2018-01-07T08:10:17.968Z,40
2018-01-07T08:11:28.194Z,40
2018-01-07T08:12:38.382Z,40
2018-01-07T08:13:48.632Z,40
2018-01-07T08:14:58.961Z,40
2018-01-07T08:16:09.202Z,40
2018-01-07T08:17:19.121Z,40
2018-01-07T08:18:29.253Z,40
2018-01-07T08:19:39.371Z,45
2018-01-07T08:20:49.543Z,45
2018-01-07T08:21:59.722Z,45
2018-01-07T08:23:09.880Z,45
2018-01-07T08:24:20.021Z,45
2018-01-07T08:25:30.174Z,45
2018-01-07T08:26:40.294Z,50
2018-01-07T08:27:50.407Z,50
2018-01-07T08:29:00.569Z,50
2018-01-07T08:30:10.826Z,55
2018-01-07T08:31:21.072Z,55
2018-01-07T08:32:31.282Z,60
2018-01-07T08:33:41.491Z,60
2018-01-07T08:34:51.657Z,60
2018-01-07T08:36:01.298Z,60
2018-01-07T08:37:11.446Z,60
2018-01-07T08:38:21.596Z,60
2018-01-07T08:39:31.727Z,60
2018-01-07T08:40:41.934Z,60
2018-01-07T08:41:52.093Z,70
2018-01-07T08:43:02.240Z,70
2018-01-07T08:44:12.443Z,70
2018-01-07T08:45:22.714Z,65
2018-01-07T08:46:32.996Z,60
2018-01-07T08:47:43.236Z,60
2018-01-07T08:48:53.493Z,65
2018-01-07T08:50:03.614Z,60
2018-01-07T08:51:13.747Z,65
2018-01-07T08:52:24.004Z,60
2018-01-07T08:53:34.188Z,65
2018-01-07T08:54:44.000Z,65
2018-01-07T08:55:54.163Z,65
2018-01-07T08:57:04.317Z,65
2018-01-07T08:58:14.540Z,70
2018-01-07T08:59:24.863Z,70
2018-01-07T09:00:35.001Z,75
2018-01-07T09:01:45.204Z,75
2018-01-07T09:02:55.325Z,75
2018-01-07T09:04:05.398Z,75
2018-01-07T09:05:15.597Z,75
2018-01-07T09:06:25.741Z,75
2018-01-07T09:07:35.912Z,80
2018-01-07T09:08:46.141Z,85
2018-01-07T09:09:56.315Z,85
2018-01-07T09:11:06.222Z,90
2018-01-07T09:12:16.425Z,90
2018-01-07T09:13:26.552Z,95
2018-01-07T09:14:36.755Z,105
2018-01-07T09:15:46.927Z,110
2018-01-07T09:16:58.070Z,110
2018-01-07T09:18:08.341Z,110
2018-01-07T09:19:18.783Z,115
2018-01-07T09:20:28.900Z,120
2018-01-07T09:21:39.058Z,125
2018-01-07T09:22:49.218Z,130
2018-01-07T09:23:59.065Z,135
2018-01-07T09:25:09.290Z,140
2018-01-07T09:26:19.554Z,145
2018-01-07T09:27:29.761Z,145
2018-01-07T09:28:39.927Z,150
2018-01-07T09:29:50.191Z,145
2018-01-07T09:31:00.383Z,145
2018-01-07T09:32:10.537Z,140
2018-01-07T09:33:20.423Z,135
2018-01-07T09:34:30.693Z,140
2018-01-07T09:35:40.925Z,130
2018-01-07T09:36:51.071Z,125
2018-01-07T09:38:00.963Z,120
2018-01-07T09:39:11.094Z,115
2018-01-07T09:40:21.039Z,115
2018-01-07T09:41:31.169Z,115
2018-01-07T09:42:41.292Z,110
2018-01-07T09:43:51.207Z,110
2018-01-07T09:45:01.355Z,110
2018-01-07T09:46:11.536Z,110
2018-01-07T09:47:21.697Z,110
2018-01-07T09:48:31.844Z,110
2018-01-07T09:49:42.056Z,115
2018-01-07T09:50:52.325Z,120
2018-01-07T09:52:02.444Z,115
2018-01-07T09:53:12.674Z,115
2018-01-07T09:54:22.860Z,115
2018-01-07T09:55:33.026Z,115
2018-01-07T09:56:44.248Z,115
2018-01-07T09:57:54.412Z,120
2018-01-07T09:59:04.697Z,120
2018-01-07T10:00:14.882Z,120
2018-01-07T10:01:25.040Z,115
2018-01-07T10:02:35.203Z,115
2018-01-07T10:03:45.366Z,115
2018-01-07T10:04:55.622Z,120
2018-01-07T10:06:05.805Z,125
2018-01-07T10:07:15.960Z,125
2018-01-07T10:08:26.088Z,130
2018-01-07T10:09:36.255Z,130
2018-01-07T10:10:46.461Z,140
2018-01-07T10:11:56.636Z,145
2018-01-07T10:13:06.881Z,150
2018-01-07T10:14:17.027Z,155
2018-01-07T10:15:26.958Z,155
2018-01-07T10:16:37.078Z,160
2018-01-07T10:17:47.363Z,155
2018-01-07T10:18:57.672Z,165
2018-01-07T10:20:07.882Z,170
2018-01-07T10:21:18.103Z,170
2018-01-07T10:22:28.328Z,175
2018-01-07T10:23:38.476Z,175
2018-01-07T10:24:48.682Z,180
2018-01-07T10:25:58.838Z,180
2018-01-07T10:27:09.016Z,190
2018-01-07T10:28:19.182Z,195
2018-01-07T10:29:29.576Z,200
2018-01-07T10:30:39.802Z,200
2018-01-07T10:31:50.062Z,195
2018-01-07T10:32:59.946Z,195
2018-01-07T10:34:10.079Z,195
2018-01-07T10:35:19.645Z,195
2018-01-07T10:36:32.074Z,195
2018-01-07T10:37:44.205Z,195
2018-01-07T10:39:00.216Z,190
2018-01-07T10:40:12.803Z,185
2018-01-07T10:41:24.641Z,180
2018-01-07T10:42:36.368Z,175
2018-01-07T10:43:48.347Z,175
2018-01-07T10:45:00.175Z,185
2018-01-07T10:46:11.856Z,185
2018-01-07T10:47:25.028Z,205
2018-01-07T10:48:36.624Z,210
2018-01-07T10:49:48.337Z,220
2018-01-07T10:50:59.750Z,220
2018-01-07T10:52:11.627Z,220
2018-01-07T10:53:23.735Z,225
2018-01-07T10:54:35.236Z,230
2018-01-07T10:55:47.557Z,235
2018-01-07T10:56:59.034Z,240
2018-01-07T10:58:10.509Z,240
2018-01-07T10:59:22.237Z,245
2018-01-07T11:00:34.585Z,245
2018-01-07T11:01:46.504Z,250
2018-01-07T11:02:58.017Z,260
2018-01-07T11:04:10.346Z,270
2018-01-07T11:05:24.748Z,265
2018-01-07T11:06:42.206Z,265
2018-01-07T11:08:00.232Z,270
2018-01-07T11:09:17.713Z,280
2018-01-07T11:10:36.047Z,300
2018-01-07T11:11:53.557Z,305
2018-01-07T11:13:10.183Z,305
2018-01-07T11:14:27.777Z,300
2018-01-07T11:15:48.537Z,295
2018-01-07T11:17:06.700Z,285
2018-01-07T11:18:17.803Z,285
2018-01-07T11:19:28.009Z,285
2018-01-07T11:20:38.137Z,285
2018-01-07T11:21:48.313Z,290
2018-01-07T11:22:58.466Z,295
2018-01-07T11:24:08.607Z,300
2018-01-07T11:25:18.772Z,300
2018-01-07T11:26:28.667Z,300
2018-01-07T11:27:38.805Z,300
2018-01-07T11:28:49.099Z,295
2018-01-07T11:29:59.042Z,290
2018-01-07T11:31:09.250Z,280
2018-01-07T11:32:19.424Z,290
2018-01-07T11:33:29.590Z,290
2018-01-07T11:34:39.740Z,290
2018-01-07T11:35:49.930Z,290
2018-01-07T11:37:00.088Z,290
2018-01-07T11:38:10.268Z,290
2018-01-07T11:39:20.464Z,285
2018-01-07T11:40:30.682Z,290
2018-01-07T11:41:40.592Z,295
2018-01-07T11:42:50.781Z,300
2018-01-07T11:44:00.665Z,310
2018-01-07T11:45:10.850Z,325
2018-01-07T11:46:21.098Z,340
2018-01-07T11:47:31.353Z,360
2018-01-07T11:48:41.260Z,380
2018-01-07T11:49:51.495Z,395
2018-01-07T11:51:01.742Z,405
2018-01-07T11:52:11.983Z,405
2018-01-07T11:53:22.174Z,390
2018-01-07T11:54:32.349Z,385
2018-01-07T11:55:42.601Z,380
2018-01-07T11:56:52.829Z,395
2018-01-07T11:58:03.035Z,405
2018-01-07T11:59:12.940Z,425
2018-01-07T12:00:23.166Z,455
2018-01-07T12:01:33.375Z,500
2018-01-07T12:02:43.559Z,530
2018-01-07T12:03:53.817Z,555
2018-01-07T12:05:04.008Z,565
2018-01-07T12:06:14.195Z,530
2018-01-07T12:07:24.377Z,520
2018-01-07T12:08:34.594Z,500
2018-01-07T12:09:44.772Z,495
2018-01-07T12:10:54.932Z,505
2018-01-07T12:12:05.212Z,485
2018-01-07T12:13:15.504Z,485
2018-01-07T12:14:25.710Z,480
2018-01-07T12:15:35.595Z,465
2018-01-07T12:16:46.741Z,450
2018-01-07T12:17:56.999Z,435
2018-01-07T12:19:07.155Z,410
2018-01-07T12:20:17.405Z,395
2018-01-07T12:21:27.637Z,375
2018-01-07T12:22:38.783Z,355
2018-01-07T12:23:49.033Z,340
2018-01-07T12:24:59.207Z,335
2018-01-07T12:26:09.362Z,325
2018-01-07T12:27:19.631Z,315
2018-01-07T12:28:29.845Z,310
2018-01-07T12:29:40.145Z,310
2018-01-07T12:30:50.158Z,305
2018-01-07T12:32:00.436Z,295
2018-01-07T12:33:10.366Z,285
2018-01-07T12:34:20.602Z,270
2018-01-07T12:35:30.762Z,245
2018-01-07T12:36:40.913Z,230
2018-01-07T12:37:51.086Z,210
2018-01-07T12:39:01.276Z,200
2018-01-07T12:40:11.440Z,200
2018-01-07T12:41:21.595Z,195
2018-01-07T12:42:31.869Z,200
2018-01-07T12:43:42.076Z,200
2018-01-07T12:44:52.260Z,205
2018-01-07T12:46:02.479Z,205
2018-01-07T12:47:12.752Z,210
2018-01-07T12:48:22.928Z,210
2018-01-07T12:49:33.126Z,225
2018-01-07T12:50:43.362Z,235
2018-01-07T12:51:53.599Z,245
2018-01-07T12:53:03.734Z,260
2018-01-07T12:54:13.979Z,265
2018-01-07T12:55:24.207Z,270
2018-01-07T12:56:34.555Z,280
2018-01-07T12:57:44.789Z,285
2018-01-07T12:58:55.083Z,290
2018-01-07T13:00:05.265Z,290
2018-01-07T13:01:15.422Z,290
2018-01-07T13:02:25.626Z,290
2018-01-07T13:03:35.929Z,285
2018-01-07T13:04:46.209Z,280
2018-01-07T13:05:56.439Z,280
2018-01-07T13:07:06.653Z,275
2018-01-07T13:08:16.847Z,260
2018-01-07T13:09:27.036Z,250
2018-01-07T13:10:37.186Z,245
2018-01-07T13:11:47.480Z,240
2018-01-07T13:12:57.790Z,245
2018-01-07T13:14:07.977Z,255
2018-01-07T13:15:18.150Z,270
2018-01-07T13:16:28.388Z,280
2018-01-07T13:17:38.618Z,295
2018-01-07T13:18:48.842Z,300
2018-01-07T13:19:59.138Z,285
2018-01-07T13:21:09.329Z,265
2018-01-07T13:22:19.289Z,230
2018-01-07T13:23:29.498Z,215
2018-01-07T13:24:39.792Z,210
2018-01-07T13:25:49.807Z,215
2018-01-07T13:27:00.026Z,220
2018-01-07T13:28:10.280Z,225
2018-01-07T13:29:20.460Z,220
2018-01-07T13:30:30.690Z,220
2018-01-07T13:31:40.851Z,215
2018-01-07T13:32:51.011Z,215
2018-01-07T13:34:01.307Z,220
2018-01-07T13:35:11.609Z,225
2018-01-07T13:36:21.819Z,225
2018-01-07T13:37:32.049Z,230
2018-01-07T13:38:42.215Z,235
2018-01-07T13:39:52.431Z,230
2018-01-07T13:41:02.598Z,220
2018-01-07T13:42:12.826Z,215
2018-01-07T13:43:22.861Z,200
2018-01-07T13:44:33.180Z,190
2018-01-07T13:45:43.174Z,185
2018-01-07T13:46:53.371Z,180
2018-01-07T13:48:03.550Z,170
2018-01-07T13:49:13.721Z,160
2018-01-07T13:50:23.947Z,150
2018-01-07T13:51:34.154Z,145
2018-01-07T13:52:44.350Z,135
2018-01-07T13:53:54.510Z,130
2018-01-07T13:55:04.762Z,125
2018-01-07T13:56:14.972Z,120
2018-01-07T13:57:26.130Z,115
2018-01-07T13:58:36.286Z,110
2018-01-07T13:59:51.299Z,105
2018-01-07T14:01:01.654Z,105
2018-01-07T14:02:11.911Z,100
2018-01-07T14:03:22.072Z,95
2018-01-07T14:04:32.287Z,95
2018-01-07T14:05:42.720Z,90
2018-01-07T14:06:52.891Z,95
2018-01-07T14:08:03.132Z,90
2018-01-07T14:09:13.312Z,90
2018-01-07T14:10:23.519Z,90
2018-01-07T14:11:33.662Z,90
2018-01-07T14:12:43.837Z,90
2018-01-07T14:13:54.107Z,90
2018-01-07T14:15:05.689Z,85
2018-01-07T14:16:15.905Z,80
2018-01-07T14:17:26.337Z,80
2018-01-07T14:18:36.287Z,75
2018-01-07T14:19:46.516Z,75
2018-01-07T14:20:56.764Z,75
2018-01-07T14:22:07.513Z,75
2018-01-07T14:23:17.721Z,75
2018-01-07T14:24:27.896Z,70
2018-01-07T14:25:38.117Z,60
2018-01-07T14:26:48.300Z,60
2018-01-07T14:27:58.507Z,60
2018-01-07T14:29:08.689Z,60
2018-01-07T14:30:19.853Z,55
2018-01-07T14:31:30.028Z,50
2018-01-07T14:32:40.259Z,50
2018-01-07T14:33:50.449Z,45
2018-01-07T14:35:00.689Z,40
2018-01-07T14:36:10.938Z,40
2018-01-07T14:37:21.164Z,40
2018-01-07T14:38:31.408Z,45
2018-01-07T14:39:41.609Z,40
2018-01-07T14:40:51.887Z,40
2018-01-07T14:42:02.085Z,40
2018-01-07T14:43:12.300Z,40
2018-01-07T14:44:22.547Z,35
2018-01-07T14:45:32.697Z,35
2018-01-07T14:46:42.838Z,35
2018-01-07T14:47:52.987Z,30
2018-01-07T14:49:03.225Z,30
2018-01-07T14:50:13.470Z,30
2018-01-07T14:51:23.823Z,25
2018-01-07T14:52:34.043Z,30
2018-01-07T14:53:44.263Z,30
2018-01-07T14:54:54.492Z,30
2018-01-07T14:56:04.700Z,30
2018-01-07T14:57:14.947Z,30
2018-01-07T14:58:25.110Z,30
2018-01-07T14:59:35.435Z,30
2018-01-07T15:00:45.613Z,30
2018-01-07T15:01:55.826Z,25
2018-01-07T15:03:06.028Z,25
2018-01-07T15:04:16.226Z,25
2018-01-07T15:05:26.502Z,25
2018-01-07T15:06:36.686Z,20
2018-01-07T15:07:46.937Z,20
2018-01-07T15:08:57.164Z,20
2018-01-07T15:10:07.323Z,20
2018-01-07T15:11:17.597Z,15
2018-01-07T15:12:27.754Z,15
2018-01-07T15:13:37.980Z,15
2018-01-07T15:14:48.247Z,15
2018-01-07T15:15:58.463Z,10
2018-01-07T15:17:08.751Z,10
2018-01-07T15:18:18.984Z,10
2018-01-07T15:19:28.838Z,10
2018-01-07T15:20:39.095Z,10
2018-01-07T15:21:49.407Z,10
2018-01-07T15:23:00.658Z,5
2018-01-07T15:24:10.877Z,5
2018-01-07T15:25:21.135Z,5
2018-01-07T15:26:31.085Z,5
2018-01-07T15:27:41.266Z,5
2018-01-07T15:28:51.465Z,5
2018-01-07T15:30:01.829Z,5
2018-01-07T15:31:13.001Z,0
2018-01-07T15:32:23.480Z,0
2018-01-07T15:33:33.656Z,0
2018-01-07T15:34:43.965Z,0
2018-01-07T15:35:54.158Z,0
2018-01-07T15:37:04.490Z,0
2018-01-07T15:38:14.396Z,0
2018-01-07T15:39:24.566Z,0
2018-01-07T15:40:34.975Z,0
2018-01-07T15:41:45.140Z,0
2018-01-07T15:42:55.371Z,0
2018-01-07T15:44:05.665Z,0
2018-01-07T15:45:15.954Z,0
2018-01-07T15:46:26.141Z,0
2018-01-07T15:47:36.406Z,0
2018-01-07T15:48:47.026Z,0
2018-01-07T15:49:57.050Z,0
2018-01-07T15:51:07.064Z,0
2018-01-07T15:52:17.279Z,0
2018-01-07T15:53:27.520Z,0
2018-01-07T15:54:37.836Z,0
2018-01-07T15:55:47.888Z,0
2018-01-07T15:56:58.376Z,0
2018-01-07T15:58:09.589Z,0
2018-01-07T15:59:19.925Z,0
2018-01-07T16:00:30.180Z,0
2018-01-07T16:01:40.421Z,0
2018-01-07T16:02:50.717Z,0
2018-01-07T16:04:00.970Z,0
2018-01-07T16:05:12.250Z,0
2018-01-07T16:06:22.423Z,0
2018-01-07T16:07:32.638Z,0
2018-01-07T16:08:42.796Z,0
2018-01-07T16:09:52.977Z,0
2018-01-07T16:11:03.183Z,0
2018-01-07T16:12:13.467Z,0
2018-01-07T16:13:24.527Z,0
2018-01-07T16:14:36.846Z,0
2018-01-07T16:15:47.194Z,0
2018-01-07T16:16:58.012Z,0
2018-01-07T16:18:08.254Z,0
2018-01-07T16:19:18.420Z,0
2018-01-07T16:20:28.630Z,0
2018-01-07T16:21:38.818Z,0
2018-01-07T16:22:49.007Z,0
2018-01-07T16:23:59.283Z,0
2018-01-07T16:25:09.493Z,0
2018-01-07T16:26:19.713Z,0
2018-01-07T16:27:29.942Z,0
2018-01-07T16:28:40.183Z,0
2018-01-07T16:29:50.384Z,0
2018-01-07T16:31:00.546Z,0
2018-01-07T16:32:10.813Z,0
2018-01-07T16:33:21.224Z,0
2018-01-07T16:34:31.447Z,0
2018-01-07T16:35:41.680Z,0
2018-01-07T16:36:51.883Z,0
2018-01-07T16:38:02.097Z,0
2018-01-07T16:39:12.997Z,0
2018-01-07T16:40:23.242Z,0
2018-01-07T16:41:34.415Z,0
2018-01-07T16:42:44.612Z,0
2018-01-07T16:43:54.864Z,0
2018-01-07T16:45:05.035Z,0
2018-01-07T16:46:15.291Z,0
2018-01-07T16:47:25.477Z,0
2018-01-07T16:48:35.669Z,0
2018-01-07T16:49:46.016Z,0
2018-01-07T16:50:56.285Z,0
2018-01-07T16:52:06.311Z,0
2018-01-07T16:53:16.645Z,0